Time;durP1;ratioP1;P1;durP2;ratioP2;P2;SDS_P1;SDS_P2;PMS_P1;PMS_P2;Temp;Humidity;BMP_temperature;BMP_pressure;BME280_temperature;BME280_humidity;BME280_pressure;Samples;Min_cycle;Max_cycle;Signal;HPM_P1;HPM_P2
2023/04/22 00:00:03;;;;;;;2.75;1.90;;;;;;;;;;5096614;28;20030;-82
2023/04/22 00:02:29;;;;;;;2.17;1.98;;;;;;;;;;5096520;28;20023;-82
2023/04/22 00:04:56;;;;;;;2.55;1.92;;;;;;;;;;5096703;28;20501;-82
2023/04/22 00:07:21;;;;;;;3.72;1.85;;;;;;;;;;5079837;28;20080;-82
2023/04/22 00:09:47;;;;;;;2.38;1.90;;;;;;;;;;5114881;28;20031;-82
2023/04/22 00:12:12;;;;;;;2.42;1.80;;;;;;;;;;5114598;28;20474;-82
2023/04/22 00:14:37;;;;;;;2.10;1.90;;;;;;;;;;5114176;28;20181;-82
2023/04/22 00:17:03;;;;;;;1.88;1.70;;;;;;;;;;5114462;28;20046;-82
2023/04/22 00:19:28;;;;;;;3.03;1.80;;;;;;;;;;5096144;28;20497;-82
2023/04/22 00:21:54;;;;;;;2.22;1.80;;;;;;;;;;5114456;28;20039;-82
2023/04/22 00:24:19;;;;;;;1.90;1.80;;;;;;;;;;5114473;28;20485;-82
2023/04/22 00:26:45;;;;;;;2.22;1.65;;;;;;;;;;5114221;28;20032;-82
2023/04/22 00:29:10;;;;;;;2.75;1.70;;;;;;;;;;5079221;28;20028;-82
2023/04/22 00:31:35;;;;;;;1.80;1.70;;;;;;;;;;5114573;28;20485;-82
2023/04/22 00:34:01;;;;;;;2.00;1.80;;;;;;;;;;5114135;28;20039;-81
2023/04/22 00:36:26;;;;;;;2.28;1.80;;;;;;;;;;5096461;28;20027;-81
2023/04/22 00:38:52;;;;;;;1.70;1.60;;;;;;;;;;5095845;28;20500;-81
2023/04/22 00:41:17;;;;;;;1.77;1.63;;;;;;;;;;5114302;28;20023;-81
2023/04/22 00:43:43;;;;;;;1.90;1.67;;;;;;;;;;5095752;28;20493;-81
2023/04/22 00:46:09;;;;;;;1.60;1.50;;;;;;;;;;5075808;28;20032;-81
2023/04/22 00:48:36;;;;;;;2.75;1.80;;;;;;;;;;5078652;28;20032;-82
2023/04/22 00:51:02;;;;;;;2.28;1.70;;;;;;;;;;5095725;28;20023;-81
2023/04/22 00:53:27;;;;;;;1.60;1.50;;;;;;;;;;5114120;28;20103;-81
2023/04/22 00:55:53;;;;;;;1.63;1.52;;;;;;;;;;5113957;28;20367;-82
2023/04/22 00:58:20;;;;;;;2.67;1.60;;;;;;;;;;5095710;28;20023;-82
2023/04/22 01:00:45;;;;;;;2.10;1.90;;;;;;;;;;5095588;28;20108;-81
2023/04/22 01:03:12;;;;;;;1.90;1.70;;;;;;;;;;5095378;28;20061;-82
2023/04/22 01:05:38;;;;;;;1.80;1.70;;;;;;;;;;5078741;28;20473;-83
2023/04/22 01:08:03;;;;;;;2.55;1.65;;;;;;;;;;5095354;28;20030;-82
2023/04/22 01:10:28;;;;;;;1.67;1.52;;;;;;;;;;5078671;28;20474;-82
2023/04/22 01:12:54;;;;;;;1.58;1.48;;;;;;;;;;5113560;28;20058;-81
2023/04/22 01:15:19;;;;;;;1.40;1.30;;;;;;;;;;5078414;28;20056;-82
2023/04/22 01:17:45;;;;;;;2.00;1.58;;;;;;;;;;5113743;28;20038;-82
2023/04/22 01:20:11;;;;;;;2.42;1.60;;;;;;;;;;5078367;28;20038;-82
2023/04/22 01:22:40;;;;;;;1.80;1.38;;;;;;;;;;5095729;28;20031;-82
2023/04/22 01:25:06;;;;;;;2.00;1.52;;;;;;;;;;5095322;28;20016;-82
2023/04/22 01:27:31;;;;;;;1.60;1.50;;;;;;;;;;5113502;28;20063;-82
2023/04/22 01:29:57;;;;;;;2.03;1.60;;;;;;;;;;5113343;28;20062;-82
2023/04/22 01:32:23;;;;;;;1.83;1.63;;;;;;;;;;5095531;28;20028;-83
2023/04/22 01:34:48;;;;;;;1.90;1.55;;;;;;;;;;5113391;28;20031;-83
2023/04/22 01:37:14;;;;;;;2.85;1.70;;;;;;;;;;5095495;28;20092;-82
2023/04/22 01:39:39;;;;;;;2.65;1.50;;;;;;;;;;5113648;28;20099;-82
2023/04/22 01:42:05;;;;;;;2.00;1.60;;;;;;;;;;5095127;28;20539;-82
2023/04/22 01:44:30;;;;;;;1.60;1.50;;;;;;;;;;5113567;28;20385;-82
2023/04/22 01:46:56;;;;;;;1.83;1.40;;;;;;;;;;5113407;28;20072;-82
2023/04/22 01:49:21;;;;;;;1.92;1.38;;;;;;;;;;5113508;28;20024;-82
2023/04/22 01:51:46;;;;;;;1.83;1.60;;;;;;;;;;5095295;28;20084;-82
2023/04/22 01:54:12;;;;;;;1.60;1.50;;;;;;;;;;5113199;28;20024;-82
2023/04/22 01:56:39;;;;;;;1.58;1.42;;;;;;;;;;5113448;28;20028;-82
2023/04/22 01:59:05;;;;;;;1.40;1.30;;;;;;;;;;5095486;28;20023;-82
2023/04/22 02:01:31;;;;;;;2.38;1.50;;;;;;;;;;5113332;28;20024;-82
2023/04/22 02:03:56;;;;;;;2.00;1.20;;;;;;;;;;5095321;28;20466;-81
2023/04/22 02:06:21;;;;;;;1.40;1.25;;;;;;;;;;5113347;28;20027;-82
2023/04/22 02:08:47;;;;;;;2.05;1.60;;;;;;;;;;5113535;28;20122;-82
2023/04/22 02:11:12;;;;;;;1.80;1.70;;;;;;;;;;5113465;28;20032;-82
2023/04/22 02:13:39;;;;;;;1.65;1.50;;;;;;;;;;5094826;28;20134;-82
2023/04/22 02:16:05;;;;;;;1.40;1.30;;;;;;;;;;5094727;28;20051;-82
2023/04/22 02:18:30;;;;;;;1.42;1.30;;;;;;;;;;5077872;28;20024;-82
2023/04/22 02:20:56;;;;;;;1.50;1.40;;;;;;;;;;5115640;28;20197;-81
2023/04/22 02:23:21;;;;;;;1.70;1.60;;;;;;;;;;5098589;28;20386;-82
2023/04/22 02:25:48;;;;;;;1.60;1.50;;;;;;;;;;5098387;28;20085;-81
2023/04/22 02:28:14;;;;;;;1.55;1.45;;;;;;;;;;5116583;28;20020;-82
2023/04/22 02:30:39;;;;;;;1.35;1.25;;;;;;;;;;5116662;28;20028;-81
2023/04/22 02:33:04;;;;;;;2.42;1.52;;;;;;;;;;5116800;28;20035;-81
2023/04/22 02:35:30;;;;;;;2.25;1.60;;;;;;;;;;5116553;28;20027;-82
2023/04/22 02:37:55;;;;;;;1.65;1.35;;;;;;;;;;5098506;28;20093;-81
2023/04/22 02:40:20;;;;;;;3.13;1.90;;;;;;;;;;5116649;28;20035;-82
2023/04/22 02:42:47;;;;;;;2.25;1.40;;;;;;;;;;5116336;28;20575;-82
2023/04/22 02:45:12;;;;;;;1.33;1.20;;;;;;;;;;5116623;28;20363;-82
2023/04/22 02:47:38;;;;;;;1.67;1.40;;;;;;;;;;5097930;28;20024;-82
2023/04/22 02:50:05;;;;;;;1.98;1.38;;;;;;;;;;5098590;28;20036;-81
2023/04/22 02:52:30;;;;;;;1.63;1.52;;;;;;;;;;5079964;28;20075;-82
2023/04/22 02:54:55;;;;;;;1.67;1.50;;;;;;;;;;5098151;28;20047;-82
2023/04/22 02:57:21;;;;;;;1.65;1.42;;;;;;;;;;5115949;28;20031;-82
2023/04/22 02:59:46;;;;;;;1.40;1.30;;;;;;;;;;5097791;28;20486;-82
2023/04/22 03:02:11;;;;;;;1.50;1.40;;;;;;;;;;5097696;28;20028;-81
2023/04/22 03:04:37;;;;;;;4.43;1.42;;;;;;;;;;5116144;28;20029;-82
2023/04/22 03:07:02;;;;;;;1.60;1.50;;;;;;;;;;5116119;28;20041;-82
2023/04/22 03:09:27;;;;;;;1.83;1.42;;;;;;;;;;5115742;28;20031;-82
2023/04/22 03:11:54;;;;;;;1.40;1.30;;;;;;;;;;5097605;28;20042;-82
2023/04/22 03:14:19;;;;;;;1.40;1.30;;;;;;;;;;5097090;28;20078;-82
2023/04/22 03:16:45;;;;;;;1.40;1.30;;;;;;;;;;5116151;28;20130;-82
2023/04/22 03:19:10;;;;;;;1.58;1.40;;;;;;;;;;5115606;28;20042;-83
2023/04/22 03:21:35;;;;;;;1.55;1.42;;;;;;;;;;5115577;28;20390;-82
2023/04/22 03:24:01;;;;;;;1.48;1.20;;;;;;;;;;5097200;28;20068;-83
2023/04/22 03:26:26;;;;;;;1.10;1.10;;;;;;;;;;5063455;28;20042;-82
2023/04/22 03:28:52;;;;;;;1.50;1.30;;;;;;;;;;5097174;28;20080;-81
2023/04/22 03:31:17;;;;;;;1.55;1.40;;;;;;;;;;5114858;28;20024;-82
2023/04/22 03:33:42;;;;;;;1.60;1.50;;;;;;;;;;5115549;28;20028;-82
2023/04/22 03:36:08;;;;;;;1.48;1.38;;;;;;;;;;5115162;28;20034;-81
2023/04/22 03:38:33;;;;;;;1.48;1.30;;;;;;;;;;5097045;28;20046;-82
2023/04/22 03:40:58;;;;;;;3.42;1.50;;;;;;;;;;5096985;28;20038;-81
2023/04/22 03:43:24;;;;;;;1.58;1.48;;;;;;;;;;5115083;28;20019;-82
2023/04/22 03:45:50;;;;;;;1.40;1.30;;;;;;;;;;5097479;28;20044;-81
2023/04/22 03:48:15;;;;;;;1.60;1.40;;;;;;;;;;5097013;28;20391;-81
2023/04/22 03:50:41;;;;;;;2.03;1.40;;;;;;;;;;5114895;28;20023;-81
2023/04/22 03:53:06;;;;;;;2.92;1.40;;;;;;;;;;5114859;28;20385;-81
2023/04/22 03:55:32;;;;;;;1.45;1.35;;;;;;;;;;5096544;28;20032;-81
2023/04/22 03:57:57;;;;;;;5.68;1.27;;;;;;;;;;5080003;28;20040;-81
2023/04/22 04:00:22;;;;;;;1.58;1.35;;;;;;;;;;5096399;28;20075;-81
2023/04/22 04:02:48;;;;;;;2.00;1.20;;;;;;;;;;5114866;28;20432;-81
2023/04/22 04:05:13;;;;;;;4.30;1.45;;;;;;;;;;5115146;28;20043;-82
2023/04/22 04:07:39;;;;;;;1.27;1.17;;;;;;;;;;5096753;28;20026;-81
2023/04/22 04:10:05;;;;;;;1.75;1.30;;;;;;;;;;5096583;28;20038;-81
2023/04/22 04:12:30;;;;;;;1.30;1.20;;;;;;;;;;5096414;28;20030;-81
2023/04/22 04:14:56;;;;;;;1.52;1.42;;;;;;;;;;5114378;28;20123;-81
2023/04/22 04:17:24;;;;;;;1.40;1.23;;;;;;;;;;5115003;28;20028;-82
2023/04/22 04:19:50;;;;;;;3.00;1.40;;;;;;;;;;5114887;28;20378;-82
2023/04/22 04:22:17;;;;;;;1.35;1.25;;;;;;;;;;5114574;28;20059;-81
2023/04/22 04:24:42;;;;;;;1.27;1.27;;;;;;;;;;5114706;28;20016;-80
2023/04/22 04:27:08;;;;;;;1.10;1.00;;;;;;;;;;5114395;28;20102;-81
2023/04/22 04:29:34;;;;;;;1.65;1.27;;;;;;;;;;5096029;28;20031;-81
2023/04/22 04:32:00;;;;;;;1.40;1.30;;;;;;;;;;5096484;28;20024;-82
2023/04/22 04:34:25;;;;;;;1.13;1.13;;;;;;;;;;5114461;28;20117;-82
2023/04/22 04:36:51;;;;;;;1.30;1.20;;;;;;;;;;5114156;28;20028;-81
2023/04/22 04:39:16;;;;;;;1.60;1.25;;;;;;;;;;5114403;28;20036;-81
2023/04/22 04:41:42;;;;;;;4.68;1.38;;;;;;;;;;5095644;28;20390;-81
2023/04/22 04:44:08;;;;;;;1.33;1.20;;;;;;;;;;5114202;28;20035;-81
2023/04/22 04:46:33;;;;;;;1.23;1.10;;;;;;;;;;5095853;28;20031;-81
2023/04/22 04:48:58;;;;;;;2.40;1.20;;;;;;;;;;5114109;28;20462;-81
2023/04/22 04:51:24;;;;;;;1.30;1.20;;;;;;;;;;5095720;28;20027;-81
2023/04/22 04:53:49;;;;;;;1.40;1.30;;;;;;;;;;5113810;28;20053;-81
2023/04/22 04:56:15;;;;;;;1.50;1.20;;;;;;;;;;5095621;28;20020;-81
2023/04/22 04:58:41;;;;;;;1.48;1.30;;;;;;;;;;5113895;28;20035;-81
2023/04/22 05:01:06;;;;;;;3.33;1.30;;;;;;;;;;5095764;28;20398;-81
2023/04/22 05:03:31;;;;;;;2.67;1.20;;;;;;;;;;5078770;28;20031;-81
2023/04/22 05:05:57;;;;;;;1.95;1.40;;;;;;;;;;5114233;28;20032;-80
2023/04/22 05:08:22;;;;;;;1.30;1.20;;;;;;;;;;5095592;28;20118;-81
2023/04/22 05:10:48;;;;;;;1.73;1.20;;;;;;;;;;5114083;28;20028;-81
2023/04/22 05:13:13;;;;;;;1.98;1.52;;;;;;;;;;5113682;28;20024;-80
2023/04/22 05:15:38;;;;;;;2.58;1.25;;;;;;;;;;5105376;28;20028;-81
2023/04/22 05:18:05;;;;;;;1.85;1.33;;;;;;;;;;5095480;28;20027;-81
2023/04/22 05:20:30;;;;;;;1.48;1.30;;;;;;;;;;5095891;28;20076;-81
2023/04/22 05:22:55;;;;;;;1.40;1.30;;;;;;;;;;5114145;28;20031;-81
2023/04/22 05:25:21;;;;;;;1.63;1.30;;;;;;;;;;5113722;28;20020;-81
2023/04/22 05:27:46;;;;;;;1.15;1.13;;;;;;;;;;5113595;28;20107;-81
2023/04/22 05:30:12;;;;;;;1.55;1.45;;;;;;;;;;5113582;28;20446;-81
2023/04/22 05:32:37;;;;;;;2.00;1.40;;;;;;;;;;5114174;28;20041;-81
2023/04/22 05:35:03;;;;;;;1.48;1.38;;;;;;;;;;5095274;28;20035;-81
2023/04/22 05:37:28;;;;;;;1.55;1.45;;;;;;;;;;5095262;28;20060;-81
2023/04/22 05:39:53;;;;;;;1.38;1.27;;;;;;;;;;5095705;28;20027;-81
2023/04/22 05:42:19;;;;;;;1.50;1.40;;;;;;;;;;5095637;28;20031;-81
2023/04/22 05:44:44;;;;;;;1.38;1.27;;;;;;;;;;5061702;28;20487;-81
2023/04/22 05:47:10;;;;;;;2.25;1.33;;;;;;;;;;5114025;28;20028;-81
2023/04/22 05:49:35;;;;;;;1.40;1.30;;;;;;;;;;5095143;28;20043;-81
2023/04/22 05:52:00;;;;;;;2.33;1.77;;;;;;;;;;5113648;28;20484;-81
2023/04/22 05:54:27;;;;;;;1.67;1.35;;;;;;;;;;5078692;28;20032;-81
2023/04/22 05:56:52;;;;;;;1.67;1.58;;;;;;;;;;5082204;28;20031;-81
2023/04/22 05:59:17;;;;;;;2.20;1.75;;;;;;;;;;5099377;28;20359;-81
2023/04/22 06:01:43;;;;;;;1.83;1.58;;;;;;;;;;5099090;28;20026;-81
2023/04/22 06:04:08;;;;;;;1.50;1.40;;;;;;;;;;5117272;28;20035;-80
2023/04/22 06:06:34;;;;;;;2.17;1.70;;;;;;;;;;5098818;28;20028;-80
2023/04/22 06:09:00;;;;;;;2.25;1.63;;;;;;;;;;5117100;28;20028;-81
2023/04/22 06:11:25;;;;;;;1.83;1.70;;;;;;;;;;5117672;28;20032;-81
2023/04/22 06:13:51;;;;;;;2.15;1.80;;;;;;;;;;5116818;28;20051;-81
2023/04/22 06:16:17;;;;;;;1.73;1.63;;;;;;;;;;5098532;28;20038;-82
2023/04/22 06:18:42;;;;;;;2.15;1.80;;;;;;;;;;5116937;28;20042;-81
2023/04/22 06:21:08;;;;;;;3.03;2.00;;;;;;;;;;5098615;28;20393;-81
2023/04/22 06:23:33;;;;;;;3.28;2.17;;;;;;;;;;5117357;28;20164;-82
2023/04/22 06:26:00;;;;;;;2.20;2.00;;;;;;;;;;5098487;28;20023;-82
2023/04/22 06:28:26;;;;;;;2.00;1.80;;;;;;;;;;5098758;28;20036;-82
2023/04/22 06:30:51;;;;;;;2.35;2.00;;;;;;;;;;5117265;28;20485;-82
2023/04/22 06:33:16;;;;;;;2.10;1.90;;;;;;;;;;5098429;28;20032;-81
2023/04/22 06:35:42;;;;;;;2.13;1.80;;;;;;;;;;5116481;28;20032;-81
2023/04/22 06:38:07;;;;;;;3.20;1.88;;;;;;;;;;5098507;28;20036;-82
2023/04/22 06:40:32;;;;;;;2.88;2.05;;;;;;;;;;5116760;28;20050;-82
2023/04/22 06:42:58;;;;;;;3.60;2.00;;;;;;;;;;5116775;28;20381;-81
2023/04/22 06:45:24;;;;;;;3.67;2.08;;;;;;;;;;5116685;28;20478;-81
2023/04/22 06:47:52;;;;;;;2.35;1.98;;;;;;;;;;5116599;28;20028;-82
2023/04/22 06:50:18;;;;;;;2.50;2.13;;;;;;;;;;5116255;28;20385;-82
2023/04/22 06:52:43;;;;;;;2.97;2.15;;;;;;;;;;5098489;28;20039;-82
2023/04/22 06:55:09;;;;;;;5.25;2.30;;;;;;;;;;5116100;28;20027;-82
2023/04/22 06:57:34;;;;;;;2.20;1.90;;;;;;;;;;5098272;28;20028;-80
2023/04/22 07:00:00;;;;;;;3.05;2.40;;;;;;;;;;5080734;28;20409;-80
2023/04/22 07:02:25;;;;;;;3.47;2.28;;;;;;;;;;5116395;28;20390;-80
2023/04/22 07:04:50;;;;;;;3.67;2.08;;;;;;;;;;5080843;28;20032;-83
2023/04/22 07:07:16;;;;;;;2.70;2.30;;;;;;;;;;5115042;28;20173;-82
2023/04/22 07:09:41;;;;;;;6.40;2.72;;;;;;;;;;5080863;28;20032;-82
2023/04/22 07:12:07;;;;;;;6.35;2.25;;;;;;;;;;5116099;28;20027;-82
2023/04/22 07:14:32;;;;;;;8.48;2.50;;;;;;;;;;5115608;28;20047;-82
2023/04/22 07:16:58;;;;;;;5.30;2.40;;;;;;;;;;5115772;28;20027;-81
2023/04/22 07:19:24;;;;;;;6.45;2.42;;;;;;;;;;5115964;28;20052;-82
2023/04/22 07:21:49;;;;;;;5.95;2.60;;;;;;;;;;5097545;28;20427;-82
2023/04/22 07:24:15;;;;;;;3.40;2.40;;;;;;;;;;5097781;28;20024;-82
2023/04/22 07:26:41;;;;;;;8.82;2.50;;;;;;;;;;5097412;28;20077;-82
2023/04/22 07:29:07;;;;;;;6.07;2.72;;;;;;;;;;5080389;28;20027;-82
2023/04/22 07:31:34;;;;;;;3.08;2.75;;;;;;;;;;5116507;28;20534;-80
2023/04/22 07:33:59;;;;;;;4.55;2.65;;;;;;;;;;5097263;28;20022;-80
2023/04/22 07:36:25;;;;;;;6.38;2.22;;;;;;;;;;5115556;28;20027;-81
2023/04/22 07:38:50;;;;;;;3.40;2.50;;;;;;;;;;5097391;28;20048;-81
2023/04/22 07:41:16;;;;;;;6.65;2.88;;;;;;;;;;5115495;28;20031;-82
2023/04/22 07:43:41;;;;;;;6.07;2.65;;;;;;;;;;5115474;28;20133;-82
2023/04/22 07:46:06;;;;;;;7.05;2.80;;;;;;;;;;5115480;28;20089;-82
2023/04/22 07:48:32;;;;;;;4.18;2.30;;;;;;;;;;5115372;28;20371;-82
2023/04/22 07:50:57;;;;;;;6.57;2.83;;;;;;;;;;5097018;28;20031;-81
2023/04/22 07:53:23;;;;;;;6.28;2.45;;;;;;;;;;5116135;28;20096;-82
2023/04/22 07:55:48;;;;;;;3.63;2.85;;;;;;;;;;5115137;28;20460;-82
2023/04/22 07:58:14;;;;;;;2.85;2.30;;;;;;;;;;5097127;28;20028;-82
2023/04/22 08:00:40;;;;;;;9.63;2.65;;;;;;;;;;5114846;28;20092;-81
2023/04/22 08:03:05;;;;;;;7.05;2.72;;;;;;;;;;5114954;28;20474;-80
2023/04/22 08:05:30;;;;;;;6.60;2.97;;;;;;;;;;5114887;28;20028;-79
2023/04/22 08:07:56;;;;;;;14.60;3.65;;;;;;;;;;5114763;28;20023;-81
2023/04/22 08:10:21;;;;;;;10.40;3.35;;;;;;;;;;5114853;28;20028;-81
2023/04/22 08:12:47;;;;;;;13.60;3.40;;;;;;;;;;5080377;28;20031;-83
2023/04/22 08:15:12;;;;;;;7.45;2.90;;;;;;;;;;5079550;28;20092;-81
2023/04/22 08:17:37;;;;;;;7.55;3.15;;;;;;;;;;5079324;28;20395;-80
2023/04/22 08:20:04;;;;;;;6.95;2.97;;;;;;;;;;5114647;28;20034;-80
2023/04/22 08:22:30;;;;;;;7.50;3.17;;;;;;;;;;5096632;28;20039;-82
2023/04/22 08:24:56;;;;;;;4.90;3.20;;;;;;;;;;5114704;28;20019;-83
2023/04/22 08:27:22;;;;;;;8.45;3.40;;;;;;;;;;5096297;28;20028;-85
2023/04/22 08:29:47;;;;;;;14.35;4.47;;;;;;;;;;5114810;28;20038;-84
2023/04/22 08:32:12;;;;;;;12.75;3.80;;;;;;;;;;5115000;28;20035;-85
2023/04/22 08:34:38;;;;;;;8.88;4.00;;;;;;;;;;5096545;28;20115;-84
2023/04/22 08:37:03;;;;;;;12.55;3.95;;;;;;;;;;5096304;28;20031;-84
2023/04/22 08:39:29;;;;;;;6.75;3.90;;;;;;;;;;5095983;28;20035;-83
2023/04/22 08:41:55;;;;;;;9.00;4.60;;;;;;;;;;5096299;28;20038;-82
2023/04/22 08:44:21;;;;;;;5.88;3.72;;;;;;;;;;5097671;28;20028;-82
2023/04/22 08:46:47;;;;;;;8.63;3.95;;;;;;;;;;5075834;28;20398;-82
2023/04/22 08:49:17;;;;;;;9.32;3.88;;;;;;;;;;5096104;28;20024;-83
2023/04/22 08:51:43;;;;;;;12.23;4.85;;;;;;;;;;5096041;28;20035;-84
2023/04/22 08:54:10;;;;;;;9.43;5.35;;;;;;;;;;5096182;28;20149;-85
2023/04/22 08:56:38;;;;;;;9.25;5.05;;;;;;;;;;5095852;28;20023;-83
2023/04/22 08:59:04;;;;;;;12.57;5.22;;;;;;;;;;5078905;28;20059;-85
2023/04/22 09:01:30;;;;;;;15.18;6.55;;;;;;;;;;5078853;28;20499;-85
2023/04/22 09:03:58;;;;;;;27.05;7.53;;;;;;;;;;5096139;28;20020;-85
2023/04/22 09:06:23;;;;;;;29.33;6.90;;;;;;;;;;5096638;28;20018;-83
2023/04/22 09:08:49;;;;;;;22.27;8.35;;;;;;;;;;5096129;28;20031;-84
2023/04/22 09:11:15;;;;;;;23.92;7.70;;;;;;;;;;5095844;28;20024;-83
2023/04/22 09:13:41;;;;;;;26.67;8.50;;;;;;;;;;5095790;28;20522;-82
2023/04/22 09:16:07;;;;;;;38.25;13.00;;;;;;;;;;5095646;28;20042;-82
2023/04/22 09:18:42;;;;;;;36.00;12.75;;;;;;;;;;5095569;28;20119;-82
2023/04/22 09:21:08;;;;;;;36.60;10.77;;;;;;;;;;5095906;28;20032;-81
2023/04/22 09:23:43;;;;;;;32.03;9.90;;;;;;;;;;5096226;28;20043;-82
2023/04/22 09:26:08;;;;;;;29.27;9.57;;;;;;;;;;5078478;28;20043;-81
2023/04/22 09:28:35;;;;;;;23.02;8.95;;;;;;;;;;5095483;28;20364;-82
2023/04/22 09:31:02;;;;;;;23.85;7.80;;;;;;;;;;5098847;28;20106;-86
2023/04/22 09:33:30;;;;;;;16.65;7.18;;;;;;;;;;5100807;28;20156;-85
2023/04/22 09:35:55;;;;;;;21.67;6.70;;;;;;;;;;5100072;28;20466;-86
2023/04/22 09:38:21;;;;;;;14.05;6.63;;;;;;;;;;5083358;28;20043;-84
2023/04/22 09:40:46;;;;;;;15.10;6.28;;;;;;;;;;5083983;28;20363;-85
2023/04/22 09:43:17;;;;;;;11.40;5.65;;;;;;;;;;5100748;28;20038;-87
2023/04/22 09:45:42;;;;;;;13.45;5.80;;;;;;;;;;5099417;28;20501;-82
2023/04/22 09:48:11;;;;;;;13.85;5.65;;;;;;;;;;5117770;28;20055;-85
2023/04/22 09:50:38;;;;;;;11.93;5.57;;;;;;;;;;5099328;28;20039;-90
2023/04/22 09:53:06;;;;;;;10.43;5.35;;;;;;;;;;5100281;28;20031;-86
2023/04/22 09:55:35;;;;;;;10.27;5.13;;;;;;;;;;5099440;28;20024;-83
2023/04/22 09:58:06;;;;;;;10.23;4.93;;;;;;;;;;5099254;28;20024;-85
2023/04/22 10:00:32;;;;;;;7.43;4.63;;;;;;;;;;5082172;28;20110;-84
2023/04/22 10:02:57;;;;;;;14.07;5.07;;;;;;;;;;5117455;28;20066;-83
2023/04/22 10:05:24;;;;;;;13.00;4.85;;;;;;;;;;5117440;28;20027;-86
2023/04/22 10:07:50;;;;;;;7.75;4.18;;;;;;;;;;5117375;28;20035;-85
2023/04/22 10:10:15;;;;;;;9.07;4.72;;;;;;;;;;5117107;28;20028;-84
2023/04/22 10:12:41;;;;;;;6.30;4.13;;;;;;;;;;5099422;28;20035;-84
2023/04/22 10:15:06;;;;;;;10.70;4.60;;;;;;;;;;5116965;28;20054;-84
2023/04/22 10:17:34;;;;;;;8.57;4.20;;;;;;;;;;5099599;28;20038;-85
2023/04/22 10:20:06;;;;;;;11.50;4.18;;;;;;;;;;5117700;28;20024;-84
2023/04/22 10:22:33;;;;;;;7.13;4.15;;;;;;;;;;5082876;28;20122;-84
2023/04/22 10:24:59;;;;;;;14.50;4.28;;;;;;;;;;5098782;28;20027;-84
2023/04/22 10:27:24;;;;;;;8.68;4.40;;;;;;;;;;5098600;28;20023;-84
2023/04/22 10:29:50;;;;;;;9.43;3.40;;;;;;;;;;5098307;28;20382;-84
2023/04/22 10:32:18;;;;;;;7.00;3.70;;;;;;;;;;5116741;28;20027;-85
2023/04/22 10:34:47;;;;;;;8.88;4.03;;;;;;;;;;5098544;28;20080;-86
2023/04/22 10:37:17;;;;;;;4.78;3.47;;;;;;;;;;5098288;28;20031;-84
2023/04/22 10:40:09;;;;;;;7.65;4.00;;;;;;;;;;5098530;28;20028;-82
2023/04/22 10:42:36;;;;;;;5.60;3.38;;;;;;;;;;5099158;28;20519;-85
2023/04/22 10:45:03;;;;;;;8.60;3.88;;;;;;;;;;5102486;28;20393;-83
2023/04/22 10:47:31;;;;;;;6.88;3.40;;;;;;;;;;5081216;28;20028;-87
2023/04/22 10:50:13;;;;;;;7.82;3.83;;;;;;;;;;5081341;28;20394;-86
2023/04/22 10:52:40;;;;;;;7.43;3.58;;;;;;;;;;5102753;28;20110;-88
2023/04/22 10:55:05;;;;;;;8.10;3.42;;;;;;;;;;5104562;28;20030;-85
2023/04/22 10:57:37;;;;;;;5.85;3.47;;;;;;;;;;5081532;28;20023;-86
2023/04/22 11:00:23;;;;;;;5.30;3.20;;;;;;;;;;5098705;28;20028;-87
2023/04/22 11:03:04;;;;;;;11.27;3.22;;;;;;;;;;5097901;28;20076;-87
2023/04/22 11:05:30;;;;;;;6.60;2.53;;;;;;;;;;5115788;28;20022;-88
2023/04/22 11:08:05;;;;;;;6.80;3.28;;;;;;;;;;5081047;28;20115;-86
2023/04/22 11:10:45;;;;;;;5.95;2.83;;;;;;;;;;5080819;28;20051;-87
2023/04/22 11:13:15;;;;;;;5.05;2.70;;;;;;;;;;5080438;28;20024;-87
2023/04/22 11:15:42;;;;;;;3.63;2.85;;;;;;;;;;5116078;28;20493;-87
2023/04/22 11:18:10;;;;;;;5.97;2.75;;;;;;;;;;5115735;28;20030;-87
2023/04/22 11:20:36;;;;;;;5.72;3.15;;;;;;;;;;5097734;28;20015;-87
2023/04/22 11:23:01;;;;;;;3.92;2.80;;;;;;;;;;5116536;28;20039;-85
2023/04/22 11:25:27;;;;;;;5.78;2.50;;;;;;;;;;5097562;28;20397;-86
2023/04/22 11:27:55;;;;;;;5.68;2.85;;;;;;;;;;5097196;28;20038;-86
2023/04/22 11:30:22;;;;;;;5.55;2.65;;;;;;;;;;5097841;28;20023;-86
2023/04/22 11:32:57;;;;;;;4.43;2.75;;;;;;;;;;5097888;28;20430;-86
2023/04/22 11:35:31;;;;;;;4.30;2.70;;;;;;;;;;5097660;28;20028;-87
2023/04/22 11:38:00;;;;;;;5.43;3.20;;;;;;;;;;5078626;28;20037;-91
2023/04/22 11:40:33;;;;;;;7.82;2.50;;;;;;;;;;5095613;28;20041;-89
2023/04/22 11:43:01;;;;;;;3.45;2.75;;;;;;;;;;5115629;28;20016;-88
2023/04/22 11:45:28;;;;;;;6.22;2.88;;;;;;;;;;5097526;28;20024;-88
2023/04/22 11:47:55;;;;;;;6.30;2.50;;;;;;;;;;5097901;28;20051;-89
2023/04/22 11:50:23;;;;;;;4.78;2.53;;;;;;;;;;5097162;28;20084;-88
2023/04/22 11:52:55;;;;;;;3.10;2.67;;;;;;;;;;5096794;28;20085;-88
2023/04/22 11:55:24;;;;;;;15.13;2.83;;;;;;;;;;5097258;28;20024;-88
2023/04/22 11:57:57;;;;;;;5.70;2.97;;;;;;;;;;5097349;28;20028;-87
2023/04/22 12:00:27;;;;;;;7.28;2.60;;;;;;;;;;5097278;28;20031;-88
2023/04/22 12:02:57;;;;;;;9.02;3.20;;;;;;;;;;5096683;28;20031;-87
2023/04/22 12:05:39;;;;;;;3.00;2.63;;;;;;;;;;5080262;28;20020;-88
2023/04/22 12:08:22;;;;;;;4.30;2.70;;;;;;;;;;5097041;28;20481;-89
2023/04/22 12:10:50;;;;;;;7.50;2.93;;;;;;;;;;5079939;28;20035;-88
2023/04/22 12:13:31;;;;;;;8.60;3.20;;;;;;;;;;5114961;28;20106;-87
2023/04/22 12:16:20;;;;;;;4.13;2.63;;;;;;;;;;5115455;28;20019;-87
2023/04/22 12:18:53;;;;;;;4.68;3.28;;;;;;;;;;5104062;28;20089;-88
2023/04/22 12:21:23;;;;;;;4.73;3.27;;;;;;;;;;5106001;28;20023;-86
2023/04/22 12:23:53;;;;;;;4.93;2.78;;;;;;;;;;5101764;28;20118;-86
2023/04/22 12:26:20;;;;;;;4.60;2.78;;;;;;;;;;5097774;28;20090;-87
2023/04/22 12:28:46;;;;;;;3.92;3.00;;;;;;;;;;5096881;28;20020;-87
2023/04/22 12:31:13;;;;;;;4.10;2.90;;;;;;;;;;5114864;28;20509;-87
2023/04/22 12:33:39;;;;;;;3.40;2.92;;;;;;;;;;5079806;28;20466;-87
2023/04/22 12:36:05;;;;;;;4.10;3.08;;;;;;;;;;5096444;28;20531;-87
2023/04/22 12:38:30;;;;;;;4.60;2.95;;;;;;;;;;5096653;28;20065;-86
2023/04/22 12:40:56;;;;;;;7.85;2.97;;;;;;;;;;5079372;28;20035;-88
2023/04/22 12:43:22;;;;;;;3.45;3.03;;;;;;;;;;5079487;28;20020;-87
2023/04/22 12:45:47;;;;;;;4.20;3.55;;;;;;;;;;5096603;28;20478;-89
2023/04/22 12:48:12;;;;;;;6.28;3.00;;;;;;;;;;5096718;28;20053;-89
2023/04/22 12:50:39;;;;;;;5.22;3.33;;;;;;;;;;5096418;28;20034;-88
2023/04/22 12:53:04;;;;;;;4.45;3.10;;;;;;;;;;5079471;28;20031;-87
2023/04/22 12:55:30;;;;;;;3.33;2.95;;;;;;;;;;5096333;28;20085;-87
2023/04/22 12:57:55;;;;;;;5.30;3.10;;;;;;;;;;5062871;28;20027;-86
2023/04/22 13:00:21;;;;;;;5.30;3.03;;;;;;;;;;5079263;28;20478;-86
2023/04/22 13:02:48;;;;;;;7.95;2.97;;;;;;;;;;5095980;28;20030;-86
2023/04/22 13:05:14;;;;;;;4.80;3.20;;;;;;;;;;5095339;28;20031;-86
2023/04/22 13:07:43;;;;;;;4.53;2.80;;;;;;;;;;5097008;28;20015;-87
2023/04/22 13:10:14;;;;;;;4.68;3.00;;;;;;;;;;5097008;28;20394;-89
2023/04/22 13:12:40;;;;;;;3.50;3.05;;;;;;;;;;5079551;28;20030;-85
2023/04/22 13:15:07;;;;;;;4.90;3.15;;;;;;;;;;5087452;28;20088;-85
2023/04/22 13:17:33;;;;;;;7.63;2.92;;;;;;;;;;5055647;28;20040;-89
2023/04/22 13:19:58;;;;;;;5.00;2.80;;;;;;;;;;5067143;28;20471;-87
2023/04/22 13:22:24;;;;;;;5.32;3.08;;;;;;;;;;5054505;28;20039;-86
2023/04/22 13:24:49;;;;;;;4.90;3.15;;;;;;;;;;5057458;28;20028;-88
2023/04/22 13:27:15;;;;;;;5.60;3.38;;;;;;;;;;5072505;28;20387;-88
2023/04/22 13:29:41;;;;;;;3.33;3.03;;;;;;;;;;5056373;28;20032;-89
2023/04/22 13:32:07;;;;;;;3.90;3.03;;;;;;;;;;5039108;28;20071;-87
2023/04/22 13:34:33;;;;;;;4.55;3.22;;;;;;;;;;5060176;28;20036;-86
2023/04/22 13:36:59;;;;;;;4.63;2.78;;;;;;;;;;5101039;28;20039;-87
2023/04/22 13:39:24;;;;;;;3.38;2.83;;;;;;;;;;5095751;28;20070;-86
2023/04/22 13:41:50;;;;;;;4.10;2.97;;;;;;;;;;5080981;28;20077;-87
2023/04/22 13:44:16;;;;;;;4.70;3.08;;;;;;;;;;5070796;28;20023;-87
2023/04/22 13:46:41;;;;;;;4.07;2.97;;;;;;;;;;5086760;28;20095;-86
2023/04/22 13:49:07;;;;;;;3.95;3.10;;;;;;;;;;5095921;28;20028;-87
2023/04/22 13:51:33;;;;;;;3.35;2.85;;;;;;;;;;5068719;28;21323;-87
2023/04/22 13:53:59;;;;;;;6.60;3.03;;;;;;;;;;5091518;28;20036;-87
2023/04/22 13:56:25;;;;;;;6.07;3.17;;;;;;;;;;5076183;28;20079;-87
2023/04/22 13:58:50;;;;;;;4.10;2.65;;;;;;;;;;5055239;28;20040;-88
2023/04/22 14:01:16;;;;;;;9.30;2.60;;;;;;;;;;5081148;28;20475;-88
2023/04/22 14:03:42;;;;;;;3.03;2.60;;;;;;;;;;5029563;28;20093;-86
2023/04/22 14:06:07;;;;;;;3.65;2.83;;;;;;;;;;5080946;28;20039;-86
2023/04/22 14:08:33;;;;;;;4.55;2.78;;;;;;;;;;5099646;28;20035;-87
2023/04/22 14:10:58;;;;;;;5.18;2.97;;;;;;;;;;5099778;28;20035;-87
2023/04/22 14:13:25;;;;;;;4.30;2.85;;;;;;;;;;5076717;28;20115;-86
2023/04/22 14:15:51;;;;;;;3.25;2.47;;;;;;;;;;5076378;28;20044;-87
2023/04/22 14:18:16;;;;;;;3.10;2.58;;;;;;;;;;5097346;28;20034;-85
2023/04/22 14:20:43;;;;;;;3.97;2.70;;;;;;;;;;5096861;28;20034;-86
2023/04/22 14:23:09;;;;;;;3.42;2.70;;;;;;;;;;5069743;28;20036;-85
2023/04/22 14:25:35;;;;;;;3.05;2.55;;;;;;;;;;5066497;28;20445;-86
2023/04/22 14:28:01;;;;;;;4.20;2.70;;;;;;;;;;5062439;28;20482;-85
2023/04/22 14:30:26;;;;;;;4.35;2.88;;;;;;;;;;5078917;28;20055;-86
2023/04/22 14:32:52;;;;;;;3.45;3.15;;;;;;;;;;5078916;28;20522;-86
2023/04/22 14:35:17;;;;;;;7.45;3.13;;;;;;;;;;5078357;28;20494;-86